createdAt,value
2023-01-09T00:02:08.595Z,17.20
2023-01-09T00:04:36.426Z,16.90
2023-01-09T00:07:03.940Z,13.80
2023-01-09T00:09:31.184Z,14.60
2023-01-09T00:11:58.558Z,14.20
2023-01-09T00:14:25.481Z,18.40
2023-01-09T00:16:54.667Z,19.80
2023-01-09T00:19:21.724Z,16.20
2023-01-09T00:21:48.567Z,15.10
2023-01-09T00:24:16.229Z,18.40
2023-01-09T00:26:43.064Z,17.70
2023-01-09T00:29:10.630Z,14.90
2023-01-09T00:31:37.675Z,17.70
2023-01-09T00:34:06.558Z,16.20
2023-01-09T00:36:33.404Z,14.80
2023-01-09T00:39:00.962Z,15.80
2023-01-09T00:41:36.986Z,15.60
2023-01-09T00:44:07.752Z,15.40
2023-01-09T00:46:37.270Z,13.80
2023-01-09T00:49:04.610Z,17.20
2023-01-09T00:51:31.401Z,16.40
2023-01-09T00:53:58.096Z,15.40
2023-01-09T00:56:25.446Z,18.10
2023-01-09T00:58:52.301Z,15.00
2023-01-09T01:01:21.070Z,14.00
2023-01-09T01:03:48.041Z,12.60
2023-01-09T01:06:33.735Z,14.00
2023-01-09T01:09:01.470Z,13.20
2023-01-09T01:11:28.818Z,15.30
2023-01-09T01:13:55.868Z,17.90
2023-01-09T01:16:22.737Z,14.70
2023-01-09T01:18:50.274Z,18.50
2023-01-09T01:21:17.411Z,14.30
2023-01-09T01:23:44.367Z,14.80
2023-01-09T01:26:13.263Z,14.60
2023-01-09T01:28:40.741Z,12.10
2023-01-09T01:31:08.166Z,13.70
2023-01-09T01:33:35.519Z,14.50
2023-01-09T01:36:07.968Z,15.10
2023-01-09T01:41:02.700Z,11.70
2023-01-09T01:43:53.918Z,14.30
2023-01-09T01:46:20.937Z,15.20
2023-01-09T01:48:49.125Z,15.20
2023-01-09T01:51:16.606Z,12.90
2023-01-09T01:53:46.804Z,14.30
2023-01-09T01:56:21.332Z,13.60
2023-01-09T01:58:51.932Z,14.40
2023-01-09T02:01:18.757Z,14.60
2023-01-09T02:03:45.884Z,14.10
2023-01-09T02:06:12.898Z,10.10
2023-01-09T02:08:39.835Z,13.60
2023-01-09T02:11:07.000Z,16.70
2023-01-09T02:13:34.852Z,14.30
2023-01-09T02:16:22.036Z,11.40
2023-01-09T02:19:26.437Z,10.90
2023-01-09T02:22:06.862Z,13.10
2023-01-09T02:25:03.298Z,13.80
2023-01-09T02:27:43.247Z,11.00
2023-01-09T02:30:31.827Z,12.40
2023-01-09T02:33:08.330Z,13.60
2023-01-09T02:36:01.783Z,15.60
2023-01-09T02:38:46.772Z,13.90
2023-01-09T02:41:21.403Z,12.00
2023-01-09T02:43:48.125Z,12.80
2023-01-09T02:46:21.742Z,12.20
2023-01-09T02:48:50.185Z,9.60
2023-01-09T02:51:25.616Z,11.70
2023-01-09T02:53:55.595Z,10.90
2023-01-09T02:56:40.982Z,11.00
2023-01-09T02:59:17.491Z,14.20
2023-01-09T03:02:02.918Z,9.60
2023-01-09T03:04:46.536Z,9.60
2023-01-09T03:07:30.584Z,12.50
2023-01-09T03:10:02.914Z,12.30
2023-01-09T03:12:30.572Z,10.70
2023-01-09T03:14:58.101Z,12.50
2023-01-09T03:17:36.833Z,12.70
2023-01-09T03:20:04.835Z,10.40
2023-01-09T03:22:31.976Z,11.30
2023-01-09T03:24:58.688Z,12.30
2023-01-09T03:27:25.556Z,13.00
2023-01-09T03:29:52.800Z,12.00
2023-01-09T03:32:19.678Z,10.40
2023-01-09T03:34:46.295Z,10.70
2023-01-09T03:37:13.019Z,11.50
2023-01-09T03:39:40.287Z,14.00
2023-01-09T03:42:07.218Z,14.50
2023-01-09T03:44:33.835Z,9.30
2023-01-09T03:47:00.761Z,13.90
2023-01-09T03:49:27.439Z,9.90
2023-01-09T03:51:54.068Z,9.20
2023-01-09T03:54:21.780Z,12.00
2023-01-09T03:56:49.675Z,10.60
2023-01-09T03:59:16.301Z,12.60
2023-01-09T04:01:43.420Z,11.90
2023-01-09T04:04:10.261Z,12.30
2023-01-09T04:06:37.421Z,10.80
2023-01-09T04:09:04.281Z,11.50
2023-01-09T04:11:31.988Z,12.20
2023-01-09T04:13:58.637Z,11.90
2023-01-09T04:16:25.603Z,9.60
2023-01-09T04:18:52.323Z,9.20
2023-01-09T04:21:19.463Z,10.90
2023-01-09T04:23:46.091Z,10.80
2023-01-09T04:26:17.054Z,12.00
2023-01-09T04:28:43.804Z,11.60
2023-01-09T04:31:10.612Z,9.60
2023-01-09T04:33:37.283Z,17.40
2023-01-09T04:36:04.772Z,14.50
2023-01-09T04:38:31.611Z,14.70
2023-01-09T04:40:58.442Z,13.70
2023-01-09T04:43:25.086Z,17.90
2023-01-09T04:45:51.876Z,13.10
2023-01-09T04:48:18.491Z,11.80
2023-01-09T04:50:45.205Z,13.80
2023-01-09T04:53:12.096Z,12.60
2023-01-09T04:55:40.908Z,15.20
2023-01-09T04:58:07.604Z,12.80
2023-01-09T05:00:34.389Z,11.80
2023-01-09T05:03:02.362Z,12.80
2023-01-09T05:05:32.395Z,11.60
2023-01-09T05:07:59.684Z,13.30
2023-01-09T05:10:26.491Z,14.80
2023-01-09T05:12:53.183Z,11.10
2023-01-09T05:15:19.916Z,15.20
2023-01-09T05:17:46.609Z,11.50
2023-01-09T05:20:13.251Z,14.90
2023-01-09T05:22:39.940Z,11.60
2023-01-09T05:25:06.890Z,15.00
2023-01-09T05:27:33.913Z,16.80
2023-01-09T05:30:01.017Z,14.90
2023-01-09T05:32:27.879Z,20.00
2023-01-09T05:34:54.672Z,11.70
2023-01-09T05:37:22.146Z,12.90
2023-01-09T05:39:48.886Z,22.30
2023-01-09T05:42:15.762Z,14.70
2023-01-09T05:44:42.575Z,11.80
2023-01-09T05:47:09.210Z,14.80
2023-01-09T05:49:35.825Z,13.30
2023-01-09T05:52:02.716Z,13.90
2023-01-09T05:54:29.593Z,14.30
2023-01-09T05:56:56.647Z,12.70
2023-01-09T05:59:23.350Z,14.40
2023-01-09T06:01:50.227Z,15.30
2023-01-09T06:04:16.948Z,16.20
2023-01-09T06:06:43.697Z,14.00
2023-01-09T06:09:10.648Z,13.00
2023-01-09T06:11:38.009Z,12.90
2023-01-09T06:14:06.718Z,12.60
2023-01-09T06:16:33.405Z,16.00
2023-01-09T06:19:00.151Z,15.60
2023-01-09T06:21:28.928Z,11.50
2023-01-09T06:23:55.997Z,15.60
2023-01-09T06:26:23.027Z,16.40
2023-01-09T06:28:49.912Z,11.60
2023-01-09T06:31:16.833Z,16.70
2023-01-09T06:33:43.983Z,13.70
2023-01-09T06:36:10.788Z,14.10
2023-01-09T06:38:38.367Z,16.40
2023-01-09T06:41:05.145Z,15.50
2023-01-09T06:43:32.276Z,16.00
2023-01-09T06:46:00.329Z,15.80
2023-01-09T06:48:27.137Z,17.80
2023-01-09T06:50:54.011Z,13.80
2023-01-09T06:53:20.792Z,18.40
2023-01-09T06:55:47.625Z,17.10
2023-01-09T06:58:14.531Z,17.20
2023-01-09T07:00:41.262Z,13.80
2023-01-09T07:03:08.902Z,10.10
2023-01-09T07:05:40.829Z,14.30
2023-01-09T07:08:08.117Z,9.50
2023-01-09T07:10:37.207Z,15.60
2023-01-09T07:13:04.942Z,14.40
2023-01-09T07:15:31.715Z,16.20
2023-01-09T07:17:58.717Z,14.10
2023-01-09T07:20:25.473Z,13.10
2023-01-09T07:22:53.404Z,13.90
2023-01-09T07:25:20.553Z,11.90
2023-01-09T07:27:48.193Z,13.10
2023-01-09T07:30:16.039Z,13.50
2023-01-09T07:32:43.207Z,12.40
2023-01-09T07:35:10.418Z,12.70
2023-01-09T07:37:37.657Z,11.00
2023-01-09T07:40:06.335Z,11.10
2023-01-09T07:42:33.340Z,12.70
2023-01-09T07:45:00.712Z,10.60
2023-01-09T07:47:27.765Z,10.60
2023-01-09T07:49:54.716Z,9.00
2023-01-09T07:52:21.565Z,11.10
2023-01-09T07:54:48.574Z,10.20
2023-01-09T07:57:15.473Z,10.40
2023-01-09T07:59:42.951Z,9.60
2023-01-09T08:02:10.106Z,9.70
2023-01-09T08:04:37.142Z,12.70
2023-01-09T08:07:04.376Z,9.20
2023-01-09T08:09:32.224Z,13.10
2023-01-09T08:11:59.606Z,10.40
2023-01-09T08:14:27.002Z,9.40
2023-01-09T08:16:54.238Z,10.20
2023-01-09T08:19:21.710Z,16.00
2023-01-09T08:21:49.216Z,10.20
2023-01-09T08:24:16.186Z,12.50
2023-01-09T08:26:44.789Z,9.50
2023-01-09T08:29:15.226Z,13.30
2023-01-09T08:31:44.283Z,12.90
2023-01-09T08:34:13.386Z,11.10
2023-01-09T08:36:42.564Z,13.30
2023-01-09T08:39:12.059Z,9.90
2023-01-09T08:41:59.852Z,14.40
2023-01-09T08:44:46.897Z,13.30
2023-01-09T08:47:16.351Z,13.50
2023-01-09T08:49:45.184Z,11.40
2023-01-09T08:52:14.195Z,9.50
2023-01-09T08:54:44.295Z,9.90
2023-01-09T08:57:13.550Z,11.90
2023-01-09T08:59:42.203Z,11.00
2023-01-09T09:02:11.205Z,9.90
2023-01-09T09:04:40.832Z,9.30
2023-01-09T09:07:11.262Z,11.30
2023-01-09T09:09:41.506Z,11.80
2023-01-09T09:12:13.676Z,9.60
2023-01-09T09:15:01.746Z,9.90
2023-01-09T09:17:32.982Z,10.00
2023-01-09T09:20:02.262Z,11.90
2023-01-09T09:22:32.292Z,10.40
2023-01-09T09:25:02.325Z,13.10
2023-01-09T09:35:33.415Z,9.90
2023-01-09T09:38:04.856Z,13.90
2023-01-09T09:41:29.471Z,12.80
2023-01-09T09:44:31.535Z,10.60
2023-01-09T09:47:04.618Z,14.00
2023-01-09T09:50:16.108Z,12.20
2023-01-09T09:53:09.881Z,11.80
2023-01-09T09:55:39.470Z,12.20
2023-01-09T09:58:23.018Z,9.90
2023-01-09T10:00:52.040Z,12.40
2023-01-09T10:03:56.265Z,9.10
2023-01-09T10:06:28.998Z,10.50
2023-01-09T10:09:11.209Z,11.70
2023-01-09T10:11:49.416Z,9.60
2023-01-09T10:14:23.666Z,13.80
2023-01-09T10:17:11.381Z,12.90
2023-01-09T10:19:38.213Z,10.80
2023-01-09T10:22:17.871Z,10.20
2023-01-09T10:25:06.733Z,11.40
2023-01-09T10:27:48.600Z,11.60
2023-01-09T10:30:21.789Z,12.00
2023-01-09T10:33:16.323Z,10.30
2023-01-09T10:35:48.009Z,8.40
2023-01-09T10:38:24.994Z,10.40
2023-01-09T10:41:01.384Z,9.60
2023-01-09T10:43:42.117Z,9.10
2023-01-09T10:46:11.958Z,8.50
2023-01-09T10:48:42.085Z,10.10
2023-01-09T10:51:23.768Z,7.60
2023-01-09T10:53:54.810Z,8.00
2023-01-09T10:56:32.402Z,8.40
2023-01-09T10:58:59.381Z,7.30
2023-01-09T11:01:30.913Z,7.30
2023-01-09T11:03:58.777Z,7.20
2023-01-09T11:06:58.989Z,7.90
2023-01-09T11:09:26.346Z,8.70
2023-01-09T11:11:53.391Z,10.50
2023-01-09T11:14:31.368Z,10.20
2023-01-09T11:17:00.896Z,7.40
2023-01-09T11:19:28.667Z,7.30
2023-01-09T11:22:11.790Z,6.70
2023-01-09T11:24:39.657Z,6.40
2023-01-09T11:27:12.547Z,7.40
2023-01-09T11:29:41.732Z,7.30
2023-01-09T11:32:21.789Z,6.70
2023-01-09T11:34:48.743Z,8.40
2023-01-09T11:37:22.925Z,6.10
2023-01-09T11:39:49.884Z,6.00
2023-01-09T11:42:43.054Z,6.10
2023-01-09T11:45:21.473Z,8.60
2023-01-09T11:47:48.216Z,7.90
2023-01-09T11:50:24.370Z,7.20
2023-01-09T11:53:18.543Z,8.70
2023-01-09T11:55:46.716Z,8.40
2023-01-09T11:58:18.472Z,8.00
2023-01-09T12:01:18.853Z,4.80
2023-01-09T12:03:52.018Z,7.60
2023-01-09T12:06:25.789Z,10.50
2023-01-09T12:08:59.328Z,9.90
2023-01-09T12:11:31.805Z,7.70
2023-01-09T12:14:10.688Z,10.20
2023-01-09T12:16:40.915Z,7.80
2023-01-09T12:19:40.044Z,8.90
2023-01-09T12:22:35.109Z,9.90
2023-01-09T12:25:21.928Z,7.60
2023-01-09T12:28:13.127Z,10.30
2023-01-09T12:30:44.069Z,7.80
2023-01-09T12:33:14.598Z,9.00
2023-01-09T12:36:03.871Z,8.90
2023-01-09T12:38:46.279Z,8.40
2023-01-09T12:41:22.438Z,8.90
2023-01-09T12:44:35.046Z,8.70
2023-01-09T12:47:28.423Z,8.50
2023-01-09T12:50:10.424Z,9.40
2023-01-09T12:52:49.131Z,9.70
2023-01-09T12:55:21.192Z,8.50
2023-01-09T12:57:52.641Z,9.60
2023-01-09T13:00:27.164Z,9.70
2023-01-09T13:03:12.091Z,7.90
2023-01-09T13:05:48.249Z,10.10
2023-01-09T13:08:34.020Z,8.80
2023-01-09T13:11:18.844Z,7.40
2023-01-09T13:14:18.551Z,10.00
2023-01-09T13:16:48.371Z,8.30
2023-01-09T13:19:23.148Z,9.10
2023-01-09T13:21:50.043Z,7.70
2023-01-09T13:24:37.663Z,8.40
2023-01-09T13:27:06.961Z,11.70
2023-01-09T13:29:41.742Z,8.80
2023-01-09T13:32:08.739Z,8.90
2023-01-09T13:34:36.298Z,11.00
2023-01-09T13:37:03.298Z,9.00
2023-01-09T13:39:32.025Z,9.10
2023-01-09T13:42:22.008Z,8.70
2023-01-09T13:44:54.318Z,8.80
2023-01-09T13:47:27.279Z,6.80
2023-01-09T13:50:00.622Z,7.30
2023-01-09T13:52:28.320Z,9.20
2023-01-09T13:54:55.070Z,6.30
2023-01-09T13:57:29.754Z,7.60
2023-01-09T14:00:18.964Z,9.10
2023-01-09T14:02:46.409Z,8.10
2023-01-09T14:05:15.092Z,6.70
2023-01-09T14:07:48.659Z,6.60
2023-01-09T14:10:24.152Z,7.50
2023-01-09T14:12:53.766Z,8.50
2023-01-09T14:15:26.671Z,8.20
2023-01-09T14:18:04.157Z,8.00
2023-01-09T14:20:37.410Z,8.10
2023-01-09T14:23:28.223Z,6.40
2023-01-09T14:25:51.877Z,7.20
2023-01-09T14:28:32.243Z,8.70
2023-01-09T14:30:59.085Z,9.50
2023-01-09T14:33:27.971Z,6.30
2023-01-09T14:36:16.323Z,7.80
2023-01-09T14:38:45.432Z,9.30
2023-01-09T14:41:15.015Z,6.70
2023-01-09T14:43:59.272Z,10.10
2023-01-09T14:46:26.316Z,7.10
2023-01-09T14:49:16.501Z,8.10
2023-01-09T14:51:45.391Z,9.50
2023-01-09T14:54:29.743Z,8.30
2023-01-09T14:56:57.097Z,10.20
2023-01-09T14:59:23.944Z,9.10
2023-01-09T15:01:51.367Z,7.50
2023-01-09T15:04:21.107Z,8.20
2023-01-09T15:06:48.151Z,9.40
2023-01-09T15:09:28.437Z,8.60
2023-01-09T15:12:03.347Z,9.70
2023-01-09T15:14:40.128Z,8.70
2023-01-09T15:17:20.370Z,10.20
2023-01-09T15:19:47.358Z,10.60
2023-01-09T15:22:35.761Z,9.90
2023-01-09T15:25:30.547Z,10.40
2023-01-09T15:28:01.988Z,9.40
2023-01-09T15:30:34.166Z,10.30
2023-01-09T15:33:19.351Z,10.60
2023-01-09T15:35:48.149Z,9.60
2023-01-09T15:38:25.015Z,13.30
2023-01-09T15:41:00.192Z,11.20
2023-01-09T15:43:27.853Z,12.50
2023-01-09T15:45:54.803Z,10.80
2023-01-09T15:48:24.567Z,14.90
2023-01-09T15:50:55.023Z,15.30
2023-01-09T15:53:23.879Z,15.90
2023-01-09T15:56:19.006Z,11.90
2023-01-09T15:58:47.773Z,12.00
2023-01-09T16:01:37.756Z,10.30
2023-01-09T16:04:08.705Z,12.00
2023-01-09T16:06:37.486Z,11.00
2023-01-09T16:09:04.958Z,12.90
2023-01-09T16:11:37.204Z,12.80
2023-01-09T16:14:18.077Z,14.20
2023-01-09T16:16:45.727Z,11.20
2023-01-09T16:19:29.173Z,11.30
2023-01-09T16:21:57.033Z,12.00
2023-01-09T16:24:27.108Z,14.10
2023-01-09T16:27:25.737Z,13.30
2023-01-09T16:29:59.193Z,11.60
2023-01-09T16:32:27.628Z,16.80
2023-01-09T16:34:56.305Z,11.40
2023-01-09T16:37:24.404Z,11.10
2023-01-09T16:40:25.204Z,11.50
2023-01-09T16:43:06.699Z,16.60
2023-01-09T16:45:34.689Z,12.50
2023-01-09T16:48:03.252Z,11.60
2023-01-09T16:50:30.502Z,14.90
2023-01-09T16:52:57.964Z,12.40
2023-01-09T16:55:24.820Z,10.30
2023-01-09T16:57:51.565Z,9.00
2023-01-09T17:00:19.502Z,12.70
2023-01-09T17:02:46.646Z,14.10
2023-01-09T17:05:13.700Z,11.30
2023-01-09T17:07:40.858Z,12.40
2023-01-09T17:10:19.030Z,14.90
2023-01-09T17:12:46.001Z,19.50
2023-01-09T17:15:14.780Z,22.00
2023-01-09T17:17:41.731Z,17.50
2023-01-09T17:20:29.477Z,13.00
2023-01-09T17:22:58.556Z,15.00
2023-01-09T17:25:44.240Z,11.70
2023-01-09T17:28:32.904Z,14.80
2023-01-09T17:31:01.063Z,16.50
2023-01-09T17:33:28.646Z,18.00
2023-01-09T17:35:56.077Z,14.30
2023-01-09T17:38:22.823Z,14.10
2023-01-09T17:40:49.762Z,17.40
2023-01-09T17:43:18.389Z,10.20
2023-01-09T17:45:45.369Z,17.50
2023-01-09T17:48:20.497Z,12.50
2023-01-09T17:50:48.098Z,13.10
2023-01-09T17:53:16.876Z,12.70
2023-01-09T17:55:43.617Z,17.00
2023-01-09T17:58:23.158Z,12.80
2023-01-09T18:00:49.997Z,16.70
2023-01-09T18:03:17.151Z,12.30
2023-01-09T18:05:44.908Z,13.70
2023-01-09T18:08:12.831Z,14.20
2023-01-09T18:10:40.237Z,15.10
2023-01-09T18:13:08.401Z,19.00
2023-01-09T18:15:35.452Z,19.10
2023-01-09T18:18:03.013Z,15.50
2023-01-09T18:20:29.888Z,15.20
2023-01-09T18:22:56.791Z,15.50
2023-01-09T18:25:23.738Z,16.50
2023-01-09T18:27:51.297Z,14.80
2023-01-09T18:30:18.137Z,19.10
2023-01-09T18:32:45.805Z,18.00
2023-01-09T18:35:13.167Z,14.30
2023-01-09T18:37:40.110Z,15.30
2023-01-09T18:40:08.907Z,14.50
2023-01-09T18:42:36.133Z,13.60
2023-01-09T18:45:03.588Z,11.60
2023-01-09T18:47:30.535Z,13.30
2023-01-09T18:49:57.375Z,12.60
2023-01-09T18:52:24.424Z,11.30
2023-01-09T18:54:51.263Z,10.00
2023-01-09T18:57:20.052Z,11.90
2023-01-09T18:59:47.111Z,11.70
2023-01-09T19:02:24.454Z,18.40
2023-01-09T19:04:51.229Z,17.30
2023-01-09T19:07:17.976Z,12.00
2023-01-09T19:09:45.230Z,20.80
2023-01-09T19:12:12.268Z,14.90
2023-01-09T19:14:41.973Z,12.70
2023-01-09T19:17:08.918Z,16.90
2023-01-09T19:19:36.474Z,15.00
2023-01-09T19:22:03.331Z,10.40
2023-01-09T19:24:32.517Z,12.00
2023-01-09T19:26:59.620Z,17.30
2023-01-09T19:29:27.442Z,14.00
2023-01-09T19:31:54.462Z,10.50
2023-01-09T19:34:24.836Z,14.60
2023-01-09T19:36:52.711Z,7.00
2023-01-09T19:39:20.017Z,7.90
2023-01-09T19:41:46.964Z,11.90
2023-01-09T19:44:14.417Z,11.30
2023-01-09T19:46:41.675Z,9.40
2023-01-09T19:49:08.715Z,9.10
2023-01-09T19:51:35.982Z,12.20
2023-01-09T19:54:03.217Z,9.00
2023-01-09T19:56:35.185Z,11.20
2023-01-09T19:59:02.961Z,10.60
2023-01-09T20:01:35.266Z,10.70
2023-01-09T20:04:07.076Z,7.90
2023-01-09T20:06:38.843Z,6.30
2023-01-09T20:09:07.206Z,8.30
2023-01-09T20:11:34.047Z,11.20
2023-01-09T20:14:00.900Z,8.60
2023-01-09T20:16:29.584Z,5.00
2023-01-09T20:18:57.950Z,4.80
2023-01-09T20:21:26.023Z,5.50
2023-01-09T20:23:54.407Z,5.60
2023-01-09T20:26:22.331Z,7.20
2023-01-09T20:28:49.842Z,5.20
2023-01-09T20:31:18.333Z,6.00
2023-01-09T20:33:49.086Z,5.80
2023-01-09T20:36:15.993Z,5.70
2023-01-09T20:38:42.931Z,7.50
2023-01-09T20:41:22.163Z,9.20
2023-01-09T20:43:55.485Z,4.20
2023-01-09T20:46:25.061Z,4.80
2023-01-09T20:48:54.153Z,5.20
2023-01-09T20:51:20.795Z,4.20
2023-01-09T20:53:54.959Z,8.90
2023-01-09T20:56:29.483Z,10.60
2023-01-09T20:58:56.986Z,8.80
2023-01-09T21:01:24.027Z,4.60
2023-01-09T21:03:51.622Z,10.00
2023-01-09T21:06:21.088Z,4.70
2023-01-09T21:08:49.818Z,5.40
2023-01-09T21:11:16.719Z,4.60
2023-01-09T21:13:43.768Z,4.70
2023-01-09T21:16:16.710Z,6.30
2023-01-09T21:18:43.905Z,5.40
2023-01-09T21:21:13.058Z,4.00
2023-01-09T21:23:51.385Z,3.70
2023-01-09T21:26:21.833Z,3.10
2023-01-09T21:28:54.600Z,4.80
2023-01-09T21:31:25.069Z,3.90
2023-01-09T21:33:53.947Z,4.10
2023-01-09T21:36:21.215Z,6.50
2023-01-09T21:38:48.335Z,5.10
2023-01-09T21:41:34.939Z,4.10
2023-01-09T21:44:20.623Z,5.20
2023-01-09T21:46:52.001Z,2.00
2023-01-09T21:49:19.941Z,5.10
2023-01-09T21:51:47.098Z,4.20
2023-01-09T21:54:14.239Z,3.80
2023-01-09T21:56:41.184Z,5.80
2023-01-09T21:59:08.280Z,7.80
2023-01-09T22:01:35.797Z,5.40
2023-01-09T22:04:02.854Z,6.50
2023-01-09T22:06:31.025Z,6.60
2023-01-09T22:08:57.952Z,6.70
2023-01-09T22:11:25.211Z,4.30
2023-01-09T22:13:53.576Z,3.30
2023-01-09T22:16:20.332Z,2.20
2023-01-09T22:18:49.001Z,3.70
2023-01-09T22:21:17.172Z,3.20
2023-01-09T22:23:44.033Z,8.70
2023-01-09T22:26:12.597Z,4.40
2023-01-09T22:28:39.880Z,6.30
2023-01-09T22:31:14.397Z,5.30
2023-01-09T22:33:41.521Z,5.70
2023-01-09T22:36:10.237Z,5.30
2023-01-09T22:38:37.367Z,10.10
2023-01-09T22:41:04.333Z,7.70
2023-01-09T22:43:31.241Z,11.70
2023-01-09T22:46:04.458Z,6.50
2023-01-09T22:48:34.533Z,2.90
2023-01-09T22:51:05.616Z,4.90
2023-01-09T22:53:32.472Z,5.50
2023-01-09T22:56:01.119Z,6.80
2023-01-09T22:58:29.755Z,7.30
2023-01-09T23:00:56.857Z,7.50
2023-01-09T23:03:24.068Z,10.80
2023-01-09T23:06:09.312Z,9.40
2023-01-09T23:08:36.634Z,12.90
2023-01-09T23:11:05.212Z,14.80
2023-01-09T23:13:31.953Z,18.30
2023-01-09T23:15:59.305Z,13.20
2023-01-09T23:18:26.245Z,12.70
2023-01-09T23:20:54.833Z,11.00
2023-01-09T23:23:22.181Z,8.90
2023-01-09T23:25:50.254Z,13.30
2023-01-09T23:28:18.017Z,13.10
2023-01-09T23:30:45.301Z,11.10
2023-01-09T23:33:12.112Z,13.80
2023-01-09T23:35:40.534Z,13.70
2023-01-09T23:38:08.148Z,10.20
2023-01-09T23:40:35.814Z,15.90
2023-01-09T23:43:09.772Z,17.60
2023-01-09T23:45:40.784Z,11.00
2023-01-09T23:48:09.036Z,9.50
2023-01-09T23:50:36.293Z,8.80
2023-01-09T23:53:03.236Z,10.80
2023-01-09T23:55:30.276Z,12.20
2023-01-09T23:57:57.424Z,9.00
